createdAt,value
2019-05-02T00:02:28.836Z,100717.94
2019-05-02T00:04:59.114Z,100714.19
2019-05-02T00:07:30.081Z,100712.95
2019-05-02T00:10:01.896Z,100708.52
2019-05-02T00:12:33.031Z,100715.35
2019-05-02T00:15:03.979Z,100703.80
2019-05-02T00:17:34.894Z,100707.68
2019-05-02T00:20:07.711Z,100705.23
2019-05-02T00:22:38.553Z,100705.47
2019-05-02T00:25:10.990Z,100709.62
2019-05-02T00:27:42.202Z,100703.89
2019-05-02T00:30:14.899Z,100700.47
2019-05-02T00:32:45.760Z,100695.63
2019-05-02T00:35:16.741Z,100703.56
2019-05-02T00:37:47.776Z,100696.97
2019-05-02T00:40:20.159Z,100699.91
2019-05-02T00:42:53.382Z,100696.99
2019-05-02T00:45:27.476Z,100698.09
2019-05-02T00:48:08.226Z,100694.53
2019-05-02T00:50:40.766Z,100690.16
2019-05-02T00:53:13.525Z,100689.45
2019-05-02T00:55:44.704Z,100681.59
2019-05-02T00:58:15.634Z,100687.59
2019-05-02T01:01:05.562Z,100690.86
2019-05-02T01:03:38.177Z,100688.59
2019-05-02T01:06:13.625Z,100686.55
2019-05-02T01:08:41.725Z,100677.81
2019-05-02T01:11:12.709Z,100681.08
2019-05-02T01:13:43.704Z,100682.09
2019-05-02T01:16:15.262Z,100680.00
2019-05-02T01:18:47.521Z,100679.30
2019-05-02T01:21:18.449Z,100673.23
2019-05-02T01:23:49.540Z,100672.36
2019-05-02T01:26:24.204Z,100667.64
2019-05-02T01:29:07.879Z,100667.64
2019-05-02T01:32:00.105Z,100659.73
2019-05-02T01:34:54.492Z,100655.18
2019-05-02T01:37:51.003Z,100660.87
2019-05-02T01:40:20.752Z,100658.66
2019-05-02T01:42:53.089Z,100654.01
2019-05-02T01:45:24.130Z,100658.06
2019-05-02T01:47:55.211Z,100652.00
2019-05-02T01:50:28.964Z,100661.70
2019-05-02T01:53:00.204Z,100651.17
2019-05-02T01:55:31.622Z,100647.70
2019-05-02T01:58:02.879Z,100648.58
2019-05-02T02:00:34.360Z,100638.38
2019-05-02T02:03:09.121Z,100643.84
2019-05-02T02:05:39.073Z,100639.88
2019-05-02T02:08:10.060Z,100637.63
2019-05-02T02:10:43.709Z,100640.39
2019-05-02T02:13:13.782Z,100638.17
2019-05-02T02:15:44.744Z,100630.19
2019-05-02T02:18:17.065Z,100630.81
2019-05-02T02:21:15.427Z,100634.37
2019-05-02T02:24:09.235Z,100636.63
2019-05-02T02:26:43.634Z,100629.64
2019-05-02T02:29:13.046Z,100629.69
2019-05-02T02:31:46.919Z,100635.91
2019-05-02T02:34:21.403Z,100634.62
2019-05-02T02:36:49.307Z,100635.66
2019-05-02T02:39:20.449Z,100635.77
2019-05-02T02:41:52.798Z,100634.02
2019-05-02T02:44:47.006Z,100633.56
2019-05-02T02:47:18.884Z,100634.02
2019-05-02T02:49:55.955Z,100630.88
2019-05-02T02:52:23.063Z,100625.54
2019-05-02T02:54:54.079Z,100634.27
2019-05-02T02:57:28.301Z,100630.10
2019-05-02T03:00:07.311Z,100629.06
2019-05-02T03:02:30.666Z,100626.80
2019-05-02T03:05:04.850Z,100629.82
2019-05-02T03:07:35.681Z,100622.62
2019-05-02T03:10:09.721Z,100623.83
2019-05-02T03:12:59.558Z,100621.98
2019-05-02T03:15:32.961Z,100621.03
2019-05-02T03:18:05.836Z,100624.13
2019-05-02T03:20:40.889Z,100619.20
2019-05-02T03:23:15.277Z,100617.73
2019-05-02T03:25:50.315Z,100619.44
2019-05-02T03:28:34.770Z,100615.06
2019-05-02T03:31:21.641Z,100617.81
2019-05-02T03:33:54.830Z,100623.55
2019-05-02T03:36:28.022Z,100616.77
2019-05-02T03:38:45.532Z,100621.83
2019-05-02T03:41:20.812Z,100619.56
2019-05-02T03:43:49.945Z,100617.34
2019-05-02T03:46:22.696Z,100621.15
2019-05-02T03:49:05.534Z,100615.80
2019-05-02T03:51:26.457Z,100613.83
2019-05-02T03:54:06.448Z,100612.31
2019-05-02T03:56:30.297Z,100621.46
2019-05-02T03:59:01.289Z,100615.82
2019-05-02T04:01:34.659Z,100614.64
2019-05-02T04:04:06.733Z,100616.40
2019-05-02T04:06:37.969Z,100609.95
2019-05-02T04:09:11.192Z,100610.98
2019-05-02T04:11:42.233Z,100605.16
2019-05-02T04:14:17.469Z,100593.58
2019-05-02T04:16:48.595Z,100593.66
2019-05-02T04:19:18.675Z,100594.98
2019-05-02T04:21:52.665Z,100591.86
2019-05-02T04:24:22.299Z,100592.09
2019-05-02T04:26:56.163Z,100594.58
2019-05-02T04:29:31.196Z,100589.23
2019-05-02T04:32:04.136Z,100587.53
2019-05-02T04:34:31.437Z,100590.85
2019-05-02T04:37:04.046Z,100589.20
2019-05-02T04:39:35.106Z,100595.98
2019-05-02T04:42:12.953Z,100592.11
2019-05-02T04:45:00.020Z,100592.05
2019-05-02T04:47:17.692Z,100592.15
2019-05-02T04:49:49.079Z,100590.34
2019-05-02T04:52:25.128Z,100581.84
2019-05-02T04:55:07.991Z,100584.39
2019-05-02T04:57:36.937Z,100585.63
2019-05-02T05:00:06.298Z,100591.78
2019-05-02T05:02:36.462Z,100596.84
2019-05-02T05:05:08.428Z,100591.44
2019-05-02T05:07:44.475Z,100586.76
2019-05-02T05:10:12.506Z,100588.38
2019-05-02T05:12:43.555Z,100582.92
2019-05-02T05:15:33.299Z,100577.41
2019-05-02T05:17:47.928Z,100584.68
2019-05-02T05:20:19.865Z,100581.80
2019-05-02T05:22:50.811Z,100584.48
2019-05-02T05:25:27.832Z,100586.73
2019-05-02T05:28:05.672Z,100582.48
2019-05-02T05:30:31.538Z,100586.27
2019-05-02T05:33:02.482Z,100584.73
2019-05-02T05:35:33.471Z,100585.74
2019-05-02T05:38:08.661Z,100589.63
2019-05-02T05:40:40.154Z,100593.18
2019-05-02T05:43:15.634Z,100600.70
2019-05-02T05:45:53.375Z,100593.77
2019-05-02T05:48:18.398Z,100590.75
2019-05-02T05:50:49.490Z,100591.95
2019-05-02T05:53:21.435Z,100594.54
2019-05-02T05:55:53.668Z,100587.89
2019-05-02T05:58:25.760Z,100587.72
2019-05-02T06:00:58.409Z,100587.34
2019-05-02T06:03:29.288Z,100596.20
2019-05-02T06:06:00.204Z,100584.20
2019-05-02T06:08:31.091Z,100578.66
2019-05-02T06:11:02.033Z,100572.88
2019-05-02T06:13:33.017Z,100580.82
2019-05-02T06:16:03.908Z,100582.84
2019-05-02T06:18:36.265Z,100587.03
2019-05-02T06:21:08.806Z,100583.67
2019-05-02T06:23:41.580Z,100573.08
2019-05-02T06:26:15.565Z,100571.64
2019-05-02T06:28:46.864Z,100564.83
2019-05-02T06:31:17.691Z,100564.38
2019-05-02T06:33:48.710Z,100559.74
2019-05-02T06:36:19.786Z,100563.55
2019-05-02T06:38:52.151Z,100561.29
2019-05-02T06:41:23.564Z,100558.96
2019-05-02T06:43:54.569Z,100558.50
2019-05-02T06:46:27.793Z,100554.27
2019-05-02T06:48:58.131Z,100550.51
2019-05-02T06:51:29.198Z,100553.59
2019-05-02T06:54:00.181Z,100548.28
2019-05-02T06:56:31.001Z,100544.88
2019-05-02T06:59:04.459Z,100552.92
2019-05-02T07:01:35.870Z,100552.05
2019-05-02T07:04:08.074Z,100550.97
2019-05-02T07:06:50.050Z,100546.42
2019-05-02T07:09:11.782Z,100542.08
2019-05-02T07:11:56.393Z,100538.98
2019-05-02T07:14:23.404Z,100543.09
2019-05-02T07:17:19.873Z,100543.54
2019-05-02T07:19:54.116Z,100541.00
2019-05-02T07:22:25.392Z,100536.97
2019-05-02T07:24:56.454Z,100546.25
2019-05-02T07:27:28.340Z,100539.59
2019-05-02T07:30:00.031Z,100549.45
2019-05-02T07:32:31.095Z,100548.79
2019-05-02T07:35:02.138Z,100549.72
2019-05-02T07:37:33.109Z,100545.21
2019-05-02T07:40:04.175Z,100544.88
2019-05-02T07:42:36.867Z,100543.36
2019-05-02T07:45:09.469Z,100539.18
2019-05-02T07:47:42.366Z,100538.24
2019-05-02T07:50:13.408Z,100543.38
2019-05-02T07:52:44.602Z,100535.66
2019-05-02T07:55:15.908Z,100537.72
2019-05-02T07:57:47.188Z,100549.52
2019-05-02T08:00:20.287Z,100546.62
2019-05-02T08:02:51.228Z,100542.97
2019-05-02T08:05:23.872Z,100547.18
2019-05-02T08:07:55.326Z,100544.38
2019-05-02T08:10:26.346Z,100548.95
2019-05-02T08:12:57.271Z,100548.62
2019-05-02T08:15:28.098Z,100546.73
2019-05-02T08:17:59.184Z,100544.05
2019-05-02T08:20:30.122Z,100552.37
2019-05-02T08:23:00.999Z,100548.95
2019-05-02T08:25:31.858Z,100546.08
2019-05-02T08:28:15.430Z,100545.91
2019-05-02T08:30:52.938Z,100542.11
2019-05-02T08:33:29.460Z,100543.02
2019-05-02T08:35:58.049Z,100537.45
2019-05-02T08:38:29.130Z,100542.13
2019-05-02T08:41:00.039Z,100539.58
2019-05-02T08:43:31.158Z,100543.03
2019-05-02T08:46:02.750Z,100543.67
2019-05-02T08:48:36.527Z,100542.22
2019-05-02T08:51:06.176Z,100547.98
2019-05-02T08:53:37.194Z,100541.80
2019-05-02T08:56:08.095Z,100543.88
2019-05-02T08:58:39.055Z,100550.53
2019-05-02T09:01:13.820Z,100536.05
2019-05-02T09:03:54.852Z,100537.11
2019-05-02T09:06:17.193Z,100532.12
2019-05-02T09:08:51.446Z,100535.40
2019-05-02T09:11:22.084Z,100530.98
2019-05-02T09:13:53.138Z,100526.67
2019-05-02T09:16:28.612Z,100520.88
2019-05-02T09:18:57.204Z,100522.20
2019-05-02T09:21:34.311Z,100514.58
2019-05-02T09:24:02.496Z,100516.53
2019-05-02T09:26:38.515Z,100511.63
2019-05-02T09:29:06.423Z,100503.75
2019-05-02T09:31:42.342Z,100501.53
2019-05-02T09:34:11.755Z,100492.95
2019-05-02T09:36:42.626Z,100491.48
2019-05-02T09:39:13.557Z,100485.61
2019-05-02T09:41:44.533Z,100484.19
2019-05-02T09:44:18.756Z,100493.59
2019-05-02T09:46:54.268Z,100488.03
2019-05-02T09:49:22.029Z,100482.89
2019-05-02T09:51:59.652Z,100481.46
2019-05-02T09:54:29.034Z,100478.74
2019-05-02T09:56:59.924Z,100473.72
2019-05-02T09:59:33.683Z,100468.72
2019-05-02T10:02:07.216Z,100465.27
2019-05-02T10:04:41.345Z,100457.08
2019-05-02T10:07:12.115Z,100457.91
2019-05-02T10:09:43.697Z,100456.27
2019-05-02T10:12:16.659Z,100451.17
2019-05-02T10:14:47.645Z,100438.04
2019-05-02T10:17:18.622Z,100444.75
2019-05-02T10:19:56.558Z,100439.81
2019-05-02T10:22:26.315Z,100447.40
2019-05-02T10:24:56.062Z,100436.52
2019-05-02T10:27:27.238Z,100433.23
2019-05-02T10:30:08.403Z,100429.65
2019-05-02T10:32:32.439Z,100428.28
2019-05-02T10:35:03.736Z,100424.37
2019-05-02T10:37:38.340Z,100425.58
2019-05-02T10:40:07.761Z,100413.02
2019-05-02T10:42:41.933Z,100410.77
2019-05-02T10:45:16.688Z,100406.25
2019-05-02T10:47:45.870Z,100411.02
2019-05-02T10:50:22.503Z,100404.67
2019-05-02T10:52:53.787Z,100404.48
2019-05-02T10:55:25.862Z,100398.33
2019-05-02T10:57:56.848Z,100399.04
2019-05-02T11:00:34.236Z,100395.17
2019-05-02T11:03:25.478Z,100389.95
2019-05-02T11:06:05.556Z,100391.37
2019-05-02T11:08:32.185Z,100387.21
2019-05-02T11:11:05.943Z,100385.17
2019-05-02T11:13:46.619Z,100383.39
2019-05-02T11:16:25.229Z,100371.72
2019-05-02T11:19:02.303Z,100367.23
2019-05-02T11:21:46.767Z,100360.46
2019-05-02T11:24:13.793Z,100355.48
2019-05-02T11:26:44.124Z,100344.48
2019-05-02T11:29:18.523Z,100346.11
2019-05-02T11:31:49.467Z,100346.94
2019-05-02T11:34:22.126Z,100346.05
2019-05-02T11:36:53.728Z,100344.12
2019-05-02T11:39:33.067Z,100331.08
2019-05-02T11:41:58.769Z,100346.69
2019-05-02T11:44:29.872Z,100338.23
2019-05-02T11:47:02.019Z,100337.20
2019-05-02T11:49:33.397Z,100336.63
2019-05-02T11:52:04.742Z,100329.27
2019-05-02T11:54:39.162Z,100321.38
2019-05-02T11:57:08.628Z,100323.20
2019-05-02T11:59:39.722Z,100315.37
2019-05-02T12:02:32.531Z,100319.77
2019-05-02T12:05:03.664Z,100318.41
2019-05-02T12:07:34.578Z,100316.08
2019-05-02T12:10:06.768Z,100315.75
2019-05-02T12:12:37.863Z,100315.15
2019-05-02T12:15:09.031Z,100317.17
2019-05-02T12:17:41.878Z,100305.97
2019-05-02T12:20:12.816Z,100302.94
2019-05-02T12:22:43.891Z,100296.23
2019-05-02T12:25:14.905Z,100301.08
2019-05-02T12:27:45.899Z,100294.03
2019-05-02T12:30:16.750Z,100292.25
2019-05-02T12:32:50.585Z,100291.02
2019-05-02T12:35:43.022Z,100289.99
2019-05-02T12:38:13.618Z,100288.41
2019-05-02T12:40:44.808Z,100276.50
2019-05-02T12:43:15.700Z,100270.95
2019-05-02T12:45:46.638Z,100269.30
2019-05-02T12:48:17.635Z,100268.16
2019-05-02T12:50:48.671Z,100259.59
2019-05-02T12:53:21.866Z,100255.95
2019-05-02T12:55:52.893Z,100264.87
2019-05-02T12:58:23.881Z,100253.73
2019-05-02T13:00:54.839Z,100256.54
2019-05-02T13:03:48.889Z,100254.20
2019-05-02T13:06:21.813Z,100249.12
2019-05-02T13:08:52.834Z,100250.66
2019-05-02T13:11:32.186Z,100239.63
2019-05-02T13:14:03.987Z,100250.20
2019-05-02T13:16:35.070Z,100247.55
2019-05-02T13:19:06.475Z,100239.38
2019-05-02T13:21:50.373Z,100230.73
2019-05-02T13:24:29.401Z,100239.05
2019-05-02T13:27:04.376Z,100231.55
2019-05-02T13:29:35.308Z,100226.29
2019-05-02T13:32:21.808Z,100230.76
2019-05-02T13:35:12.840Z,100223.11
2019-05-02T13:37:44.814Z,100218.45
2019-05-02T13:40:32.085Z,100212.72
2019-05-02T13:43:05.488Z,100210.73
2019-05-02T13:45:52.718Z,100206.59
2019-05-02T13:48:24.013Z,100207.77
2019-05-02T13:50:57.502Z,100205.30
2019-05-02T13:53:28.748Z,100201.97
2019-05-02T13:56:17.620Z,100193.48
2019-05-02T13:58:51.926Z,100192.11
2019-05-02T14:01:23.135Z,100199.29
2019-05-02T14:03:55.819Z,100188.43
2019-05-02T14:06:29.875Z,100188.05
2019-05-02T14:09:08.007Z,100169.65
2019-05-02T14:12:03.763Z,100177.57
2019-05-02T14:14:34.923Z,100171.20
2019-05-02T14:17:08.148Z,100170.86
2019-05-02T14:19:39.076Z,100172.14
2019-05-02T14:22:10.138Z,100173.34
2019-05-02T14:24:42.164Z,100170.28
2019-05-02T14:27:17.184Z,100171.16
2019-05-02T14:29:47.558Z,100174.84
2019-05-02T14:32:23.748Z,100178.81
2019-05-02T14:35:13.069Z,100171.88
2019-05-02T14:37:44.486Z,100164.10
2019-05-02T14:40:22.575Z,100167.69
2019-05-02T14:42:57.779Z,100163.61
2019-05-02T14:45:30.707Z,100166.44
2019-05-02T14:48:17.748Z,100168.70
2019-05-02T14:50:36.541Z,100166.44
2019-05-02T14:53:06.611Z,100165.45
2019-05-02T14:55:42.100Z,100168.98
2019-05-02T14:58:15.920Z,100167.66
2019-05-02T15:00:53.736Z,100167.16
2019-05-02T15:03:28.423Z,100172.41
2019-05-02T15:05:59.029Z,100171.06
2019-05-02T15:08:32.123Z,100173.70
2019-05-02T15:11:03.571Z,100178.38
2019-05-02T15:13:39.908Z,100178.34
2019-05-02T15:16:17.053Z,100189.59
2019-05-02T15:18:42.003Z,100194.70
2019-05-02T15:21:22.345Z,100202.30
2019-05-02T15:23:54.370Z,100203.39
2019-05-02T15:26:26.380Z,100195.41
2019-05-02T15:28:58.556Z,100211.07
2019-05-02T15:31:34.216Z,100211.02
2019-05-02T15:34:20.247Z,100220.42
2019-05-02T15:36:52.661Z,100220.38
2019-05-02T15:41:56.385Z,100227.05
2019-05-02T15:44:27.368Z,100223.41
2019-05-02T15:47:02.923Z,100222.87
2019-05-02T15:49:41.723Z,100226.50
2019-05-02T15:52:13.524Z,100222.22
2019-05-02T15:54:44.602Z,100220.06
2019-05-02T15:57:20.498Z,100208.39
2019-05-02T15:59:48.510Z,100219.45
2019-05-02T16:02:22.946Z,100217.84
2019-05-02T16:04:57.153Z,100217.23
2019-05-02T16:07:29.047Z,100209.67
2019-05-02T16:10:01.400Z,100209.73
2019-05-02T16:12:35.942Z,100200.83
2019-05-02T16:15:27.524Z,100204.94
2019-05-02T16:17:47.535Z,100205.88
2019-05-02T16:20:26.508Z,100208.16
2019-05-02T16:22:57.485Z,100210.73
2019-05-02T16:25:28.486Z,100209.83
2019-05-02T16:28:05.884Z,100209.99
2019-05-02T16:30:37.045Z,100205.23
2019-05-02T16:33:18.878Z,100208.00
2019-05-02T16:35:46.312Z,100211.34
2019-05-02T16:38:15.778Z,100205.91
2019-05-02T16:40:46.816Z,100208.17
2019-05-02T16:43:17.800Z,100208.31
2019-05-02T16:45:48.833Z,100206.81
2019-05-02T16:48:19.884Z,100207.28
2019-05-02T16:50:50.785Z,100214.25
2019-05-02T16:53:24.986Z,100215.56
2019-05-02T16:55:58.346Z,100217.40
2019-05-02T16:58:27.603Z,100212.03
2019-05-02T17:00:59.228Z,100213.48
2019-05-02T17:03:31.747Z,100220.55
2019-05-02T17:06:02.844Z,100225.00
2019-05-02T17:08:57.162Z,100232.11
2019-05-02T17:11:31.797Z,100236.48
2019-05-02T17:14:02.165Z,100236.65
2019-05-02T17:16:33.213Z,100243.10
2019-05-02T17:19:04.290Z,100236.67
2019-05-02T17:21:52.262Z,100241.94
2019-05-02T17:24:08.044Z,100245.62
2019-05-02T17:26:39.835Z,100239.66
2019-05-02T17:29:16.548Z,100241.94
2019-05-02T17:31:50.037Z,100240.81
2019-05-02T17:34:24.452Z,100240.80
2019-05-02T17:36:51.995Z,100240.42
2019-05-02T17:39:23.131Z,100239.63
2019-05-02T17:41:54.113Z,100241.38
2019-05-02T17:44:24.966Z,100245.23
2019-05-02T17:46:58.427Z,100246.48
2019-05-02T17:49:36.872Z,100236.66
2019-05-02T17:52:27.018Z,100235.58
2019-05-02T17:55:01.707Z,100237.16
2019-05-02T17:57:33.460Z,100248.03
2019-05-02T18:00:07.499Z,100244.27
2019-05-02T18:02:37.755Z,100243.32
2019-05-02T18:05:08.681Z,100238.67
2019-05-02T18:07:41.828Z,100246.27
2019-05-02T18:10:20.566Z,100243.51
2019-05-02T18:13:00.062Z,100248.10
2019-05-02T18:15:48.118Z,100252.35
2019-05-02T18:18:19.129Z,100244.72
2019-05-02T18:20:59.533Z,100249.55
2019-05-02T18:23:32.268Z,100245.42
2019-05-02T18:26:06.231Z,100247.62
2019-05-02T18:28:46.055Z,100244.25
2019-05-02T18:31:09.035Z,100250.23
2019-05-02T18:33:41.019Z,100250.20
2019-05-02T18:36:17.452Z,100250.74
2019-05-02T18:38:45.994Z,100254.14
2019-05-02T18:41:17.026Z,100250.35
2019-05-02T18:43:48.069Z,100258.97
2019-05-02T18:46:20.051Z,100257.84
2019-05-02T18:48:52.900Z,100257.70
2019-05-02T18:51:24.133Z,100258.60
2019-05-02T18:53:58.151Z,100260.70
2019-05-02T18:56:28.184Z,100258.48
2019-05-02T18:58:59.520Z,100264.35
2019-05-02T19:01:32.002Z,100260.11
2019-05-02T19:04:03.513Z,100267.44
2019-05-02T19:06:36.161Z,100271.45
2019-05-02T19:09:51.142Z,100275.45
2019-05-02T19:12:22.439Z,100271.68
2019-05-02T19:14:57.414Z,100274.17
2019-05-02T19:17:25.633Z,100277.47
2019-05-02T19:19:56.441Z,100277.75
2019-05-02T19:22:27.395Z,100274.73
2019-05-02T19:25:01.152Z,100284.55
2019-05-02T19:27:57.666Z,100285.55
2019-05-02T19:30:30.141Z,100287.86
2019-05-02T19:33:03.646Z,100283.27
2019-05-02T19:35:37.552Z,100286.56
2019-05-02T19:38:06.752Z,100286.52
2019-05-02T19:40:37.651Z,100290.20
2019-05-02T19:43:08.612Z,100285.61
2019-05-02T19:45:39.621Z,100289.58
2019-05-02T19:48:12.360Z,100286.36
2019-05-02T19:50:44.034Z,100287.63
2019-05-02T19:53:18.509Z,100289.72
2019-05-02T19:55:48.840Z,100287.12
2019-05-02T19:58:19.775Z,100289.94
2019-05-02T20:00:52.625Z,100286.56
2019-05-02T20:03:26.093Z,100290.63
2019-05-02T20:06:01.636Z,100289.89
2019-05-02T20:08:29.574Z,100291.44
2019-05-02T20:11:02.152Z,100295.05
2019-05-02T20:13:33.443Z,100296.92
2019-05-02T20:16:11.986Z,100293.44
2019-05-02T20:18:47.118Z,100301.19
2019-05-02T20:21:27.731Z,100303.17
2019-05-02T20:23:56.875Z,100307.53
2019-05-02T20:26:27.900Z,100309.19
2019-05-02T20:28:58.801Z,100309.13
2019-05-02T20:31:29.830Z,100314.50
2019-05-02T20:34:02.557Z,100312.27
2019-05-02T20:36:33.536Z,100311.08
2019-05-02T20:39:07.877Z,100310.18
2019-05-02T20:41:39.137Z,100315.72
2019-05-02T20:44:12.027Z,100315.50
2019-05-02T20:46:42.900Z,100319.32
2019-05-02T20:49:13.937Z,100315.55
2019-05-02T20:51:44.980Z,100318.39
2019-05-02T20:54:16.009Z,100318.06
2019-05-02T20:56:49.424Z,100319.55
2019-05-02T20:59:21.868Z,100320.09
2019-05-02T21:01:53.131Z,100321.69
2019-05-02T21:04:26.306Z,100325.03
2019-05-02T21:07:21.781Z,100324.05
2019-05-02T21:10:21.901Z,100330.16
2019-05-02T21:13:01.946Z,100333.02
2019-05-02T21:15:32.672Z,100335.72
2019-05-02T21:18:03.660Z,100329.25
2019-05-02T21:20:34.666Z,100333.52
2019-05-02T21:23:06.165Z,100335.75
2019-05-02T21:25:37.110Z,100335.98
2019-05-02T21:28:08.178Z,100339.74
2019-05-02T21:30:39.045Z,100342.89
2019-05-02T21:33:39.044Z,100347.50
2019-05-02T21:36:11.804Z,100344.40
2019-05-02T21:38:42.914Z,100345.09
2019-05-02T21:41:14.143Z,100346.09
2019-05-02T21:43:46.931Z,100354.31
2019-05-02T21:46:17.901Z,100350.36
2019-05-02T21:48:49.028Z,100348.74
2019-05-02T21:51:27.632Z,100363.05
2019-05-02T21:54:06.868Z,100365.98
2019-05-02T21:56:47.194Z,100371.88
2019-05-02T21:59:18.218Z,100364.39
2019-05-02T22:01:59.443Z,100366.43
2019-05-02T22:04:31.748Z,100370.80
2019-05-02T22:07:03.012Z,100378.26
2019-05-02T22:09:34.457Z,100374.73
2019-05-02T22:12:06.269Z,100373.68
2019-05-02T22:14:37.120Z,100378.89
2019-05-02T22:17:08.094Z,100379.26
2019-05-02T22:19:39.023Z,100376.81
2019-05-02T22:22:09.963Z,100383.52
2019-05-02T22:24:42.172Z,100383.84
2019-05-02T22:27:13.219Z,100386.96
2019-05-02T22:29:44.040Z,100388.94
2019-05-02T22:32:15.153Z,100392.62
2019-05-02T22:34:46.011Z,100388.94
2019-05-02T22:37:18.365Z,100391.88
2019-05-02T22:39:56.844Z,100392.02
2019-05-02T22:42:27.922Z,100386.75
2019-05-02T22:44:58.951Z,100389.30
2019-05-02T22:47:32.024Z,100401.62
2019-05-02T22:50:02.545Z,100400.57
2019-05-02T22:52:33.454Z,100408.14
2019-05-02T22:55:04.577Z,100407.28
2019-05-02T22:57:35.494Z,100406.34
2019-05-02T23:00:07.338Z,100407.00
2019-05-02T23:02:38.448Z,100418.14
2019-05-02T23:05:09.544Z,100416.52
2019-05-02T23:07:41.905Z,100420.55
2019-05-02T23:10:13.148Z,100419.48
2019-05-02T23:12:43.995Z,100426.97
2019-05-02T23:15:14.849Z,100426.09
2019-05-02T23:17:45.868Z,100428.03
2019-05-02T23:20:16.819Z,100438.23
2019-05-02T23:22:47.764Z,100436.95
2019-05-02T23:25:35.641Z,100434.48
2019-05-02T23:28:11.941Z,100441.72
2019-05-02T23:30:42.979Z,100439.65
2019-05-02T23:33:13.899Z,100433.58
2019-05-02T23:35:44.874Z,100427.37
2019-05-02T23:38:15.809Z,100430.71
2019-05-02T23:40:46.758Z,100439.39
2019-05-02T23:43:17.756Z,100441.66
2019-05-02T23:45:48.677Z,100428.97
2019-05-02T23:48:19.567Z,100422.72
2019-05-02T23:50:52.059Z,100427.50
2019-05-02T23:53:23.224Z,100429.62
2019-05-02T23:55:54.350Z,100437.36
2019-05-02T23:58:26.943Z,100434.98
